sensor_id;sensor_type;location;lat;lon;timestamp;pressure;altitude;pressure_sealevel;temperature;humidity
53522;BME280;39398;48.382;9.802;2024-02-16T00:01:09;93736.34;;;8.58;73.49
53522;BME280;39398;48.382;9.802;2024-02-16T00:06:11;93734.78;;;8.63;72.17
53522;BME280;39398;48.382;9.802;2024-02-16T00:11:14;93737.59;;;8.68;71.98
53522;BME280;39398;48.382;9.802;2024-02-16T00:16:15;93733.22;;;8.69;71.92
53522;BME280;39398;48.382;9.802;2024-02-16T00:21:17;93728.44;;;8.72;71.69
53522;BME280;39398;48.382;9.802;2024-02-16T00:26:21;93730.81;;;8.74;71.15
53522;BME280;39398;48.382;9.802;2024-02-16T00:31:23;93729.06;;;8.81;71.09
53522;BME280;39398;48.382;9.802;2024-02-16T00:36:26;93724.84;;;8.67;71.93
53522;BME280;39398;48.382;9.802;2024-02-16T00:41:29;93728.22;;;8.67;71.87
53522;BME280;39398;48.382;9.802;2024-02-16T00:46:31;93721.63;;;8.65;72.25
53522;BME280;39398;48.382;9.802;2024-02-16T00:51:32;93719.22;;;8.63;71.84
53522;BME280;39398;48.382;9.802;2024-02-16T00:56:35;93717.22;;;8.59;72.37
53522;BME280;39398;48.382;9.802;2024-02-16T01:01:37;93718.25;;;8.64;71.70
53522;BME280;39398;48.382;9.802;2024-02-16T01:06:38;93718.44;;;8.63;72.17
53522;BME280;39398;48.382;9.802;2024-02-16T01:11:41;93718.44;;;8.63;72.19
53522;BME280;39398;48.382;9.802;2024-02-16T01:16:43;93722.78;;;8.56;72.29
53522;BME280;39398;48.382;9.802;2024-02-16T01:21:44;93714.44;;;8.54;72.47
53522;BME280;39398;48.382;9.802;2024-02-16T01:26:47;93716.00;;;8.48;72.58
53522;BME280;39398;48.382;9.802;2024-02-16T01:31:49;93716.56;;;8.44;72.51
53522;BME280;39398;48.382;9.802;2024-02-16T01:36:51;93720.31;;;8.34;72.92
53522;BME280;39398;48.382;9.802;2024-02-16T01:41:53;93720.44;;;8.26;73.92
53522;BME280;39398;48.382;9.802;2024-02-16T01:46:55;93707.03;;;8.16;74.13
53522;BME280;39398;48.382;9.802;2024-02-16T01:51:57;93708.97;;;8.07;74.73
53522;BME280;39398;48.382;9.802;2024-02-16T01:57:00;93703.78;;;8.01;74.98
53522;BME280;39398;48.382;9.802;2024-02-16T02:02:02;93704.75;;;8.00;75.51
53522;BME280;39398;48.382;9.802;2024-02-16T02:07:11;93711.75;;;8.06;75.34
53522;BME280;39398;48.382;9.802;2024-02-16T02:12:14;93700.81;;;8.04;74.85
53522;BME280;39398;48.382;9.802;2024-02-16T02:17:16;93704.56;;;8.01;75.42
53522;BME280;39398;48.382;9.802;2024-02-16T02:22:19;93698.34;;;7.96;75.00
53522;BME280;39398;48.382;9.802;2024-02-16T02:27:21;93690.59;;;7.96;74.63
53522;BME280;39398;48.382;9.802;2024-02-16T02:32:23;93687.75;;;7.91;75.17
53522;BME280;39398;48.382;9.802;2024-02-16T02:37:26;93673.84;;;7.92;75.17
53522;BME280;39398;48.382;9.802;2024-02-16T02:42:27;93679.44;;;7.95;74.81
53522;BME280;39398;48.382;9.802;2024-02-16T02:47:29;93672.03;;;7.86;75.18
53522;BME280;39398;48.382;9.802;2024-02-16T02:52:32;93672.59;;;7.81;75.39
53522;BME280;39398;48.382;9.802;2024-02-16T02:57:33;93671.41;;;7.84;75.29
53522;BME280;39398;48.382;9.802;2024-02-16T03:02:35;93666.56;;;7.74;76.18
53522;BME280;39398;48.382;9.802;2024-02-16T03:07:38;93668.13;;;7.68;76.09
53522;BME280;39398;48.382;9.802;2024-02-16T03:12:40;93666.53;;;7.67;76.78
53522;BME280;39398;48.382;9.802;2024-02-16T03:17:41;93670.06;;;7.60;77.11
53522;BME280;39398;48.382;9.802;2024-02-16T03:22:44;93668.44;;;7.52;77.67
53522;BME280;39398;48.382;9.802;2024-02-16T03:27:46;93672.88;;;7.37;78.08
53522;BME280;39398;48.382;9.802;2024-02-16T03:32:48;93694.88;;;7.26;78.14
53522;BME280;39398;48.382;9.802;2024-02-16T03:37:50;93691.22;;;7.21;78.80
53522;BME280;39398;48.382;9.802;2024-02-16T03:42:52;93697.88;;;7.09;79.25
53522;BME280;39398;48.382;9.802;2024-02-16T03:47:54;93704.22;;;7.06;80.77
53522;BME280;39398;48.382;9.802;2024-02-16T03:52:57;93707.59;;;7.07;81.36
53522;BME280;39398;48.382;9.802;2024-02-16T03:57:58;93702.63;;;7.05;81.04
53522;BME280;39398;48.382;9.802;2024-02-16T04:03:00;93702.84;;;7.04;80.95
53522;BME280;39398;48.382;9.802;2024-02-16T04:08:04;93706.16;;;6.97;81.53
53522;BME280;39398;48.382;9.802;2024-02-16T04:13:07;93705.78;;;7.00;81.34
53522;BME280;39398;48.382;9.802;2024-02-16T04:18:08;93709.00;;;7.03;81.77
53522;BME280;39398;48.382;9.802;2024-02-16T04:23:11;93707.38;;;7.02;81.43
53522;BME280;39398;48.382;9.802;2024-02-16T04:28:13;93713.34;;;7.02;81.62
53522;BME280;39398;48.382;9.802;2024-02-16T04:33:14;93712.16;;;7.05;81.66
53522;BME280;39398;48.382;9.802;2024-02-16T04:38:18;93717.16;;;7.06;81.74
53522;BME280;39398;48.382;9.802;2024-02-16T04:43:20;93721.69;;;7.04;81.70
53522;BME280;39398;48.382;9.802;2024-02-16T04:48:21;93719.91;;;7.05;81.81
53522;BME280;39398;48.382;9.802;2024-02-16T04:53:24;93726.88;;;7.04;81.49
53522;BME280;39398;48.382;9.802;2024-02-16T04:58:26;93724.91;;;7.06;81.55
53522;BME280;39398;48.382;9.802;2024-02-16T05:03:27;93731.84;;;7.06;81.53
53522;BME280;39398;48.382;9.802;2024-02-16T05:08:30;93728.88;;;7.02;82.12
53522;BME280;39398;48.382;9.802;2024-02-16T05:13:32;93730.81;;;7.00;81.66
53522;BME280;39398;48.382;9.802;2024-02-16T05:18:33;93733.50;;;6.92;82.00
53522;BME280;39398;48.382;9.802;2024-02-16T05:23:36;93736.41;;;6.82;82.37
53522;BME280;39398;48.382;9.802;2024-02-16T05:28:38;93737.03;;;6.84;82.31
53522;BME280;39398;48.382;9.802;2024-02-16T05:33:39;93733.47;;;6.85;82.89
53522;BME280;39398;48.382;9.802;2024-02-16T05:38:43;93726.91;;;6.89;82.79
53522;BME280;39398;48.382;9.802;2024-02-16T05:43:44;93723.19;;;6.92;81.59
53522;BME280;39398;48.382;9.802;2024-02-16T05:48:46;93733.41;;;7.00;80.82
53522;BME280;39398;48.382;9.802;2024-02-16T05:53:49;93739.13;;;6.95;81.37
53522;BME280;39398;48.382;9.802;2024-02-16T05:58:50;93737.16;;;6.97;81.60
53522;BME280;39398;48.382;9.802;2024-02-16T06:03:52;93728.06;;;7.02;80.14
53522;BME280;39398;48.382;9.802;2024-02-16T06:08:55;93745.53;;;6.99;79.85
53522;BME280;39398;48.382;9.802;2024-02-16T06:13:56;93752.13;;;7.02;79.14
53522;BME280;39398;48.382;9.802;2024-02-16T06:18:58;93754.75;;;7.09;78.24
53522;BME280;39398;48.382;9.802;2024-02-16T06:24:01;93752.63;;;7.12;77.57
53522;BME280;39398;48.382;9.802;2024-02-16T06:29:02;93763.13;;;7.11;77.60
53522;BME280;39398;48.382;9.802;2024-02-16T06:34:04;93772.50;;;7.12;77.72
53522;BME280;39398;48.382;9.802;2024-02-16T06:39:07;93787.34;;;7.03;77.74
53522;BME280;39398;48.382;9.802;2024-02-16T06:44:09;93800.03;;;7.05;77.71
53522;BME280;39398;48.382;9.802;2024-02-16T06:49:10;93810.03;;;7.08;77.59
53522;BME280;39398;48.382;9.802;2024-02-16T06:54:13;93815.94;;;7.02;78.41
53522;BME280;39398;48.382;9.802;2024-02-16T06:59:15;93817.09;;;6.99;78.20
53522;BME280;39398;48.382;9.802;2024-02-16T07:04:16;93817.09;;;6.99;78.27
53522;BME280;39398;48.382;9.802;2024-02-16T07:09:19;93819.16;;;7.04;78.45
53522;BME280;39398;48.382;9.802;2024-02-16T07:14:21;93833.47;;;7.06;77.69
53522;BME280;39398;48.382;9.802;2024-02-16T07:19:23;93827.88;;;7.03;77.70
53522;BME280;39398;48.382;9.802;2024-02-16T07:24:26;93823.94;;;7.07;77.16
53522;BME280;39398;48.382;9.802;2024-02-16T07:29:27;93837.56;;;7.15;76.28
53522;BME280;39398;48.382;9.802;2024-02-16T07:34:29;93838.38;;;7.16;76.28
53522;BME280;39398;48.382;9.802;2024-02-16T07:39:32;93835.66;;;7.24;75.58
53522;BME280;39398;48.382;9.802;2024-02-16T07:44:35;93839.31;;;7.29;75.38
53522;BME280;39398;48.382;9.802;2024-02-16T07:49:37;93842.34;;;7.33;75.14
53522;BME280;39398;48.382;9.802;2024-02-16T07:54:41;93840.50;;;7.48;74.32
53522;BME280;39398;48.382;9.802;2024-02-16T07:59:42;93852.31;;;7.57;74.10
53522;BME280;39398;48.382;9.802;2024-02-16T08:04:46;93847.09;;;7.93;72.83
53522;BME280;39398;48.382;9.802;2024-02-16T08:09:49;93845.28;;;8.15;72.19
53522;BME280;39398;48.382;9.802;2024-02-16T08:14:51;93839.38;;;8.56;71.24
53522;BME280;39398;48.382;9.802;2024-02-16T08:19:53;93842.19;;;8.95;70.08
53522;BME280;39398;48.382;9.802;2024-02-16T08:24:57;93842.69;;;9.19;68.03
53522;BME280;39398;48.382;9.802;2024-02-16T08:29:58;93845.56;;;9.37;66.80
53522;BME280;39398;48.382;9.802;2024-02-16T08:35:00;93854.03;;;9.78;65.64
53522;BME280;39398;48.382;9.802;2024-02-16T08:40:04;93854.03;;;9.92;64.39
53522;BME280;39398;48.382;9.802;2024-02-16T08:45:06;93857.28;;;10.33;64.08
53522;BME280;39398;48.382;9.802;2024-02-16T08:50:09;93856.09;;;10.29;62.85
53522;BME280;39398;48.382;9.802;2024-02-16T08:55:12;93860.47;;;10.15;63.79
53522;BME280;39398;48.382;9.802;2024-02-16T09:00:14;93869.44;;;10.00;63.72
53522;BME280;39398;48.382;9.802;2024-02-16T09:05:16;93870.44;;;9.86;64.16
53522;BME280;39398;48.382;9.802;2024-02-16T09:10:19;93869.56;;;9.72;64.80
53522;BME280;39398;48.382;9.802;2024-02-16T09:15:20;93869.59;;;9.65;64.87
53522;BME280;39398;48.382;9.802;2024-02-16T09:20:22;93865.66;;;10.02;65.04
53522;BME280;39398;48.382;9.802;2024-02-16T09:25:25;93870.88;;;10.22;64.59
53522;BME280;39398;48.382;9.802;2024-02-16T09:30:27;93865.69;;;10.35;63.48
53522;BME280;39398;48.382;9.802;2024-02-16T09:35:28;93871.88;;;10.47;64.63
53522;BME280;39398;48.382;9.802;2024-02-16T09:40:31;93863.06;;;10.55;64.62
53522;BME280;39398;48.382;9.802;2024-02-16T09:45:33;93876.06;;;10.62;63.95
53522;BME280;39398;48.382;9.802;2024-02-16T09:50:35;93876.47;;;10.72;62.82
53522;BME280;39398;48.382;9.802;2024-02-16T09:55:39;93875.38;;;10.99;62.90
53522;BME280;39398;48.382;9.802;2024-02-16T10:00:40;93877.06;;;11.38;61.68
53522;BME280;39398;48.382;9.802;2024-02-16T10:05:42;93876.69;;;11.79;60.47
53522;BME280;39398;48.382;9.802;2024-02-16T10:10:45;93878.47;;;11.85;60.68
53522;BME280;39398;48.382;9.802;2024-02-16T10:15:47;93890.41;;;12.00;60.49
53522;BME280;39398;48.382;9.802;2024-02-16T10:20:48;93889.22;;;11.96;60.71
53522;BME280;39398;48.382;9.802;2024-02-16T10:25:51;93898.09;;;11.81;60.40
53522;BME280;39398;48.382;9.802;2024-02-16T10:30:57;93892.81;;;11.95;60.21
53522;BME280;39398;48.382;9.802;2024-02-16T10:35:59;93895.09;;;12.16;60.32
53522;BME280;39398;48.382;9.802;2024-02-16T10:41:04;93890.66;;;12.23;59.20
53522;BME280;39398;48.382;9.802;2024-02-16T10:46:06;93888.53;;;12.38;59.82
53522;BME280;39398;48.382;9.802;2024-02-16T10:51:09;93892.75;;;12.57;60.20
53522;BME280;39398;48.382;9.802;2024-02-16T10:56:13;93891.75;;;12.83;58.71
53522;BME280;39398;48.382;9.802;2024-02-16T11:01:15;93889.19;;;12.77;58.73
53522;BME280;39398;48.382;9.802;2024-02-16T11:06:17;93889.34;;;12.82;59.58
53522;BME280;39398;48.382;9.802;2024-02-16T11:11:23;93892.69;;;13.07;58.61
53522;BME280;39398;48.382;9.802;2024-02-16T11:16:25;93887.97;;;13.22;57.61
53522;BME280;39398;48.382;9.802;2024-02-16T11:21:32;93884.03;;;13.50;57.81
53522;BME280;39398;48.382;9.802;2024-02-16T11:26:44;93890.03;;;13.69;56.61
53522;BME280;39398;48.382;9.802;2024-02-16T11:31:46;93885.13;;;13.90;57.80
53522;BME280;39398;48.382;9.802;2024-02-16T11:36:47;93879.66;;;13.92;56.01
53522;BME280;39398;48.382;9.802;2024-02-16T11:42:00;93878.78;;;13.98;55.43
53522;BME280;39398;48.382;9.802;2024-02-16T11:47:02;93882.06;;;14.35;56.05
53522;BME280;39398;48.382;9.802;2024-02-16T11:52:04;93883.94;;;14.46;53.40
53522;BME280;39398;48.382;9.802;2024-02-16T11:57:07;93874.97;;;14.65;53.61
53522;BME280;39398;48.382;9.802;2024-02-16T12:02:16;93890.00;;;14.82;52.84
53522;BME280;39398;48.382;9.802;2024-02-16T12:07:18;93881.34;;;14.70;51.54
53522;BME280;39398;48.382;9.802;2024-02-16T12:12:21;93881.91;;;14.72;53.00
53522;BME280;39398;48.382;9.802;2024-02-16T12:17:23;93878.16;;;14.68;54.11
53522;BME280;39398;48.382;9.802;2024-02-16T12:22:24;93882.59;;;14.67;56.73
53522;BME280;39398;48.382;9.802;2024-02-16T12:27:27;93883.97;;;14.28;57.74
53522;BME280;39398;48.382;9.802;2024-02-16T12:32:29;93881.41;;;14.10;58.11
53522;BME280;39398;48.382;9.802;2024-02-16T12:37:30;93878.19;;;13.96;58.09
53522;BME280;39398;48.382;9.802;2024-02-16T12:42:33;93886.63;;;13.98;58.66
53522;BME280;39398;48.382;9.802;2024-02-16T12:47:35;93891.84;;;13.98;58.89
53522;BME280;39398;48.382;9.802;2024-02-16T12:52:36;93899.31;;;14.24;58.86
53522;BME280;39398;48.382;9.802;2024-02-16T12:57:52;93888.94;;;14.48;56.04
53522;BME280;39398;48.382;9.802;2024-02-16T13:02:54;93894.06;;;14.54;52.78
53522;BME280;39398;48.382;9.802;2024-02-16T13:07:56;93899.22;;;14.73;56.34
53522;BME280;39398;48.382;9.802;2024-02-16T13:12:59;93893.19;;;14.84;51.51
53522;BME280;39398;48.382;9.802;2024-02-16T13:18:00;93893.75;;;14.86;51.35
53522;BME280;39398;48.382;9.802;2024-02-16T13:23:02;93904.66;;;14.83;52.86
53522;BME280;39398;48.382;9.802;2024-02-16T13:28:05;93898.19;;;14.97;50.56
53522;BME280;39398;48.382;9.802;2024-02-16T13:33:07;93905.91;;;14.92;53.31
53522;BME280;39398;48.382;9.802;2024-02-16T13:38:09;93896.50;;;14.91;52.70
53522;BME280;39398;48.382;9.802;2024-02-16T13:43:12;93907.19;;;14.89;52.91
53522;BME280;39398;48.382;9.802;2024-02-16T13:48:13;93910.94;;;14.82;53.07
53522;BME280;39398;48.382;9.802;2024-02-16T13:53:15;93914.56;;;14.81;53.35
53522;BME280;39398;48.382;9.802;2024-02-16T13:58:23;93917.31;;;14.74;53.17
53522;BME280;39398;48.382;9.802;2024-02-16T14:03:25;93918.66;;;14.77;55.92
53522;BME280;39398;48.382;9.802;2024-02-16T14:08:26;93926.59;;;14.58;53.91
53522;BME280;39398;48.382;9.802;2024-02-16T14:13:29;93931.81;;;14.58;54.21
53522;BME280;39398;48.382;9.802;2024-02-16T14:18:31;93934.56;;;14.63;53.99
53522;BME280;39398;48.382;9.802;2024-02-16T14:23:36;93945.25;;;14.50;53.39
53522;BME280;39398;48.382;9.802;2024-02-16T14:28:39;93940.72;;;14.57;52.60
53522;BME280;39398;48.382;9.802;2024-02-16T14:33:41;93944.25;;;14.33;56.31
53522;BME280;39398;48.382;9.802;2024-02-16T14:38:42;93950.06;;;14.35;56.44
53522;BME280;39398;48.382;9.802;2024-02-16T14:43:45;93947.91;;;14.32;58.13
53522;BME280;39398;48.382;9.802;2024-02-16T14:48:47;93958.63;;;14.12;59.23
53522;BME280;39398;48.382;9.802;2024-02-16T14:53:49;93952.59;;;14.12;59.62
53522;BME280;39398;48.382;9.802;2024-02-16T14:58:52;93957.81;;;14.12;59.72
53522;BME280;39398;48.382;9.802;2024-02-16T15:03:53;93964.22;;;14.16;59.10
53522;BME280;39398;48.382;9.802;2024-02-16T15:08:55;93958.78;;;13.99;60.66
53522;BME280;39398;48.382;9.802;2024-02-16T15:13:59;93963.06;;;13.93;61.23
53522;BME280;39398;48.382;9.802;2024-02-16T15:19:02;93968.84;;;13.84;62.13
53522;BME280;39398;48.382;9.802;2024-02-16T15:24:04;93972.69;;;13.81;62.04
53522;BME280;39398;48.382;9.802;2024-02-16T15:29:08;93975.72;;;13.78;61.11
53522;BME280;39398;48.382;9.802;2024-02-16T15:34:09;93980.38;;;13.76;62.54
53522;BME280;39398;48.382;9.802;2024-02-16T15:39:11;93982.13;;;13.64;62.52
53522;BME280;39398;48.382;9.802;2024-02-16T15:44:14;93989.25;;;13.57;63.50
53522;BME280;39398;48.382;9.802;2024-02-16T15:49:16;93993.88;;;13.55;63.85
53522;BME280;39398;48.382;9.802;2024-02-16T15:54:18;94002.78;;;13.47;63.92
53522;BME280;39398;48.382;9.802;2024-02-16T15:59:21;94009.84;;;13.47;63.51
53522;BME280;39398;48.382;9.802;2024-02-16T16:04:22;94019.56;;;13.40;64.64
53522;BME280;39398;48.382;9.802;2024-02-16T16:09:24;94019.56;;;13.40;64.59
53522;BME280;39398;48.382;9.802;2024-02-16T16:14:27;94028.03;;;13.35;64.71
53522;BME280;39398;48.382;9.802;2024-02-16T16:19:29;94029.50;;;13.24;65.20
53522;BME280;39398;48.382;9.802;2024-02-16T16:24:30;94035.03;;;13.16;65.32
53522;BME280;39398;48.382;9.802;2024-02-16T16:29:33;94033.72;;;13.25;64.50
53522;BME280;39398;48.382;9.802;2024-02-16T16:34:35;94037.00;;;13.14;65.61
53522;BME280;39398;48.382;9.802;2024-02-16T16:39:37;94039.31;;;13.04;65.77
53522;BME280;39398;48.382;9.802;2024-02-16T16:44:40;94051.00;;;12.95;66.23
53522;BME280;39398;48.382;9.802;2024-02-16T16:49:41;94056.72;;;12.85;66.81
53522;BME280;39398;48.382;9.802;2024-02-16T16:54:43;94064.34;;;12.87;66.31
53522;BME280;39398;48.382;9.802;2024-02-16T16:59:46;94066.78;;;12.75;67.12
53522;BME280;39398;48.382;9.802;2024-02-16T17:04:48;94071.22;;;12.75;67.32
53522;BME280;39398;48.382;9.802;2024-02-16T17:09:49;94085.72;;;12.71;67.11
53522;BME280;39398;48.382;9.802;2024-02-16T17:14:53;94095.97;;;12.66;67.27
53522;BME280;39398;48.382;9.802;2024-02-16T17:19:54;94103.41;;;12.62;67.75
53522;BME280;39398;48.382;9.802;2024-02-16T17:24:56;94105.22;;;12.62;67.56
53522;BME280;39398;48.382;9.802;2024-02-16T17:29:59;94112.66;;;12.58;68.42
53522;BME280;39398;48.382;9.802;2024-02-16T17:35:01;94128.34;;;12.51;68.58
53522;BME280;39398;48.382;9.802;2024-02-16T17:40:03;94128.34;;;12.51;68.09
53522;BME280;39398;48.382;9.802;2024-02-16T17:45:07;94130.94;;;12.51;68.50
53522;BME280;39398;48.382;9.802;2024-02-16T17:50:08;94136.97;;;12.45;68.18
53522;BME280;39398;48.382;9.802;2024-02-16T17:55:10;94142.41;;;12.44;68.62
53522;BME280;39398;48.382;9.802;2024-02-16T18:00:14;94157.09;;;12.38;68.59
53522;BME280;39398;48.382;9.802;2024-02-16T18:05:16;94158.91;;;12.31;68.75
53522;BME280;39398;48.382;9.802;2024-02-16T18:10:18;94163.69;;;12.34;69.67
53522;BME280;39398;48.382;9.802;2024-02-16T18:15:21;94161.69;;;12.30;69.40
53522;BME280;39398;48.382;9.802;2024-02-16T18:20:22;94170.31;;;12.30;69.27
53522;BME280;39398;48.382;9.802;2024-02-16T18:25:24;94164.56;;;12.21;68.86
53522;BME280;39398;48.382;9.802;2024-02-16T18:30:28;94175.34;;;12.25;69.32
53522;BME280;39398;48.382;9.802;2024-02-16T18:35:30;94172.94;;;12.30;68.30
53522;BME280;39398;48.382;9.802;2024-02-16T18:40:31;94181.00;;;12.22;69.44
53522;BME280;39398;48.382;9.802;2024-02-16T18:45:34;94179.78;;;12.11;69.40
53522;BME280;39398;48.382;9.802;2024-02-16T18:50:36;94181.00;;;12.09;69.50
53522;BME280;39398;48.382;9.802;2024-02-16T18:55:37;94186.41;;;12.07;69.19
53522;BME280;39398;48.382;9.802;2024-02-16T19:00:40;94196.03;;;12.07;69.39
53522;BME280;39398;48.382;9.802;2024-02-16T19:05:42;94195.03;;;12.08;69.48
53522;BME280;39398;48.382;9.802;2024-02-16T19:10:43;94208.66;;;12.10;69.26
53522;BME280;39398;48.382;9.802;2024-02-16T19:15:46;94208.25;;;12.13;68.98
53522;BME280;39398;48.382;9.802;2024-02-16T19:20:48;94211.47;;;12.08;69.39
53522;BME280;39398;48.382;9.802;2024-02-16T19:25:50;94217.50;;;12.02;69.74
53522;BME280;39398;48.382;9.802;2024-02-16T19:30:53;94214.28;;;12.07;69.79
53522;BME280;39398;48.382;9.802;2024-02-16T19:35:54;94234.72;;;12.10;69.49
53522;BME280;39398;48.382;9.802;2024-02-16T19:40:56;94231.75;;;12.00;70.07
53522;BME280;39398;48.382;9.802;2024-02-16T19:45:59;94232.53;;;12.07;69.53
53522;BME280;39398;48.382;9.802;2024-02-16T19:51:01;94237.94;;;12.12;68.93
53522;BME280;39398;48.382;9.802;2024-02-16T19:56:03;94248.38;;;12.12;68.93
53522;BME280;39398;48.382;9.802;2024-02-16T20:01:06;94249.19;;;12.06;69.87
53522;BME280;39398;48.382;9.802;2024-02-16T20:06:08;94252.59;;;11.86;70.74
53522;BME280;39398;48.382;9.802;2024-02-16T20:11:09;94243.97;;;11.86;71.02
53522;BME280;39398;48.382;9.802;2024-02-16T20:16:12;94262.56;;;11.63;72.26
53522;BME280;39398;48.382;9.802;2024-02-16T20:21:14;94264.34;;;11.63;72.18
53522;BME280;39398;48.382;9.802;2024-02-16T20:26:21;94264.00;;;11.72;72.09
53522;BME280;39398;48.382;9.802;2024-02-16T20:31:25;94268.34;;;11.59;72.65
53522;BME280;39398;48.382;9.802;2024-02-16T20:36:26;94269.97;;;11.53;72.83
53522;BME280;39398;48.382;9.802;2024-02-16T20:41:28;94275.19;;;11.53;73.04
53522;BME280;39398;48.382;9.802;2024-02-16T20:46:31;94277.34;;;11.43;73.96
53522;BME280;39398;48.382;9.802;2024-02-16T20:51:32;94270.94;;;11.39;73.92
53522;BME280;39398;48.382;9.802;2024-02-16T20:56:34;94275.53;;;11.37;74.05
53522;BME280;39398;48.382;9.802;2024-02-16T21:01:37;94283.13;;;11.32;74.46
53522;BME280;39398;48.382;9.802;2024-02-16T21:06:39;94281.53;;;11.31;74.53
53522;BME280;39398;48.382;9.802;2024-02-16T21:11:41;94282.72;;;11.22;75.25
53522;BME280;39398;48.382;9.802;2024-02-16T21:16:43;94288.72;;;11.29;75.13
53522;BME280;39398;48.382;9.802;2024-02-16T21:21:48;94291.09;;;11.24;75.31
53522;BME280;39398;48.382;9.802;2024-02-16T21:26:50;94291.53;;;11.21;75.41
53522;BME280;39398;48.382;9.802;2024-02-16T21:31:53;94302.69;;;11.14;76.03
53522;BME280;39398;48.382;9.802;2024-02-16T21:36:55;94297.50;;;11.14;75.66
53522;BME280;39398;48.382;9.802;2024-02-16T21:41:56;94306.91;;;11.15;75.90
53522;BME280;39398;48.382;9.802;2024-02-16T21:47:00;94308.28;;;11.11;76.17
53522;BME280;39398;48.382;9.802;2024-02-16T21:52:01;94315.47;;;11.09;76.31
53522;BME280;39398;48.382;9.802;2024-02-16T21:57:03;94327.28;;;11.05;76.63
53522;BME280;39398;48.382;9.802;2024-02-16T22:02:06;94332.69;;;11.04;76.66
53522;BME280;39398;48.382;9.802;2024-02-16T22:07:08;94334.25;;;10.98;77.43
53522;BME280;39398;48.382;9.802;2024-02-16T22:12:09;94342.28;;;11.03;77.23
53522;BME280;39398;48.382;9.802;2024-02-16T22:17:12;94343.06;;;10.97;77.54
53522;BME280;39398;48.382;9.802;2024-02-16T22:22:14;94342.69;;;11.00;77.51
53522;BME280;39398;48.382;9.802;2024-02-16T22:27:16;94355.06;;;10.98;77.55
53522;BME280;39398;48.382;9.802;2024-02-16T22:32:20;94352.69;;;11.03;76.97
53522;BME280;39398;48.382;9.802;2024-02-16T22:37:21;94363.94;;;11.10;76.81
53522;BME280;39398;48.382;9.802;2024-02-16T22:42:23;94368.13;;;11.11;76.59
53522;BME280;39398;48.382;9.802;2024-02-16T22:47:26;94365.19;;;11.21;76.09
53522;BME280;39398;48.382;9.802;2024-02-16T22:52:27;94366.38;;;11.18;76.24
53522;BME280;39398;48.382;9.802;2024-02-16T22:57:29;94384.38;;;11.13;76.56
53522;BME280;39398;48.382;9.802;2024-02-16T23:02:32;94374.34;;;11.10;76.71
53522;BME280;39398;48.382;9.802;2024-02-16T23:07:34;94388.72;;;11.06;77.04
53522;BME280;39398;48.382;9.802;2024-02-16T23:12:35;94392.72;;;11.02;77.55
53522;BME280;39398;48.382;9.802;2024-02-16T23:17:38;94399.41;;;10.83;78.80
53522;BME280;39398;48.382;9.802;2024-02-16T23:22:58;94403.13;;;10.68;79.98
53522;BME280;39398;48.382;9.802;2024-02-16T23:28:00;94400.03;;;10.58;80.89
53522;BME280;39398;48.382;9.802;2024-02-16T23:33:03;94406.00;;;10.52;81.16
53522;BME280;39398;48.382;9.802;2024-02-16T23:38:06;94408.97;;;10.48;82.08
53522;BME280;39398;48.382;9.802;2024-02-16T23:43:09;94410.69;;;10.41;82.33
53522;BME280;39398;48.382;9.802;2024-02-16T23:48:12;94422.66;;;10.36;82.99
53522;BME280;39398;48.382;9.802;2024-02-16T23:53:14;94420.25;;;10.34;83.12
53522;BME280;39398;48.382;9.802;2024-02-16T23:58:15;94420.72;;;10.44;83.18
